Time;durP1;ratioP1;P1;durP2;ratioP2;P2;SDS_P1;SDS_P2;PMS_P1;PMS_P2;Temp;Humidity;BMP_temperature;BMP_pressure;BME280_temperature;BME280_humidity;BME280_pressure;Samples;Min_cycle;Max_cycle;Signal;HPM_P1;HPM_P2
2021/12/06 00:00:56;;;;;;;11.48;10.15;;;;;;;18.84;45.36;100021.53;5075447;28;20048;-81
2021/12/06 00:03:33;;;;;;;11.40;9.85;;;;;;;18.83;45.52;100023.38;5090678;28;20048;-81
2021/12/06 00:06:01;;;;;;;10.65;9.32;;;;;;;18.83;45.42;100022.53;5075758;28;20056;-81
2021/12/06 00:08:28;;;;;;;10.90;9.68;;;;;;;18.83;45.41;100022.53;5075607;28;20045;-81
2021/12/06 00:10:56;;;;;;;10.93;9.65;;;;;;;18.83;45.12;100027.91;5075222;28;20044;-81
2021/12/06 00:13:24;;;;;;;10.95;9.75;;;;;;;18.84;45.15;100034.94;5075566;28;20456;-81
2021/12/06 00:15:52;;;;;;;11.18;9.95;;;;;;;18.84;45.23;100035.81;5074044;28;20048;-82
2021/12/06 00:18:19;;;;;;;11.63;10.15;;;;;;;18.84;45.16;100033.13;5075228;28;20071;-81
2021/12/06 00:20:47;;;;;;;10.75;9.68;;;;;;;18.84;45.05;100038.50;5075095;28;20044;-81
2021/12/06 00:23:14;;;;;;;10.88;9.77;;;;;;;18.85;45.03;100042.03;5075040;28;20044;-81
2021/12/06 00:25:42;;;;;;;10.25;9.25;;;;;;;18.84;44.99;100035.81;5074647;28;20052;-81
2021/12/06 00:28:09;;;;;;;11.07;9.98;;;;;;;18.86;45.16;100049.06;5074999;28;20040;-81
2021/12/06 00:30:37;;;;;;;11.40;9.55;;;;;;;18.85;44.92;100047.38;5069888;28;20052;-81
2021/12/06 00:33:04;;;;;;;11.52;9.65;;;;;;;18.85;44.99;100042.88;5074424;28;20047;-82
2021/12/06 00:35:32;;;;;;;11.43;9.20;;;;;;;18.86;44.99;100041.88;5075100;28;20055;-81
2021/12/06 00:38:00;;;;;;;10.40;9.35;;;;;;;18.86;44.84;100047.22;5075057;28;20040;-81
2021/12/06 00:40:33;;;;;;;9.60;8.68;;;;;;;18.88;44.76;100045.25;5073338;28;20049;-81
2021/12/06 00:43:00;;;;;;;10.68;9.63;;;;;;;18.89;44.78;100051.47;5074783;28;20041;-81
2021/12/06 00:45:28;;;;;;;9.70;8.73;;;;;;;18.90;44.87;100047.78;5073495;28;20044;-81
2021/12/06 00:47:56;;;;;;;11.77;8.93;;;;;;;18.92;44.37;100051.13;5074451;28;20044;-81
2021/12/06 00:50:26;;;;;;;10.02;9.02;;;;;;;18.93;44.57;100047.50;5073395;28;20060;-81
2021/12/06 00:52:54;;;;;;;10.57;8.80;;;;;;;18.93;44.56;100047.50;5072606;28;20044;-81
2021/12/06 00:55:23;;;;;;;10.07;9.00;;;;;;;18.92;44.53;100054.69;5072453;28;20052;-81
2021/12/06 00:57:53;;;;;;;10.00;8.93;;;;;;;18.93;44.48;100050.16;5074468;28;20048;-81
2021/12/06 01:00:35;;;;;;;10.50;9.10;;;;;;;18.94;44.56;100052.69;5073955;28;20048;-81
2021/12/06 01:03:07;;;;;;;11.15;8.65;;;;;;;18.95;44.28;100050.84;5073909;28;20151;-82
2021/12/06 01:06:08;;;;;;;10.07;8.47;;;;;;;18.96;44.33;100060.63;5073902;28;20048;-81
2021/12/06 01:08:37;;;;;;;9.98;8.98;;;;;;;18.97;44.41;100067.66;5072477;28;20056;-81
2021/12/06 01:11:06;;;;;;;10.27;8.52;;;;;;;18.96;44.24;100072.19;5068720;28;20440;-81
2021/12/06 01:13:35;;;;;;;9.63;8.73;;;;;;;18.97;44.34;100079.22;5054213;28;20049;-81
2021/12/06 01:16:03;;;;;;;10.35;9.25;;;;;;;18.97;44.39;100075.72;5054260;28;20045;-81
2021/12/06 01:18:31;;;;;;;9.65;8.73;;;;;;;18.96;44.40;100080.22;5054319;28;20045;-81
2021/12/06 01:21:29;;;;;;;8.60;7.80;;;;;;;18.97;44.46;100079.22;5054003;28;20044;-81
2021/12/06 01:23:59;;;;;;;9.98;9.07;;;;;;;18.96;44.31;100077.53;5052214;28;20041;-81
2021/12/06 01:32:02;;;;;;;10.20;9.15;;;;;;;18.96;44.39;100074.03;5058426;28;20056;-80
2021/12/06 01:39:55;;;;;;;9.45;8.40;;;;;;;18.94;44.15;100092.09;5071069;28;20369;-81
2021/12/06 01:42:23;;;;;;;8.30;7.32;;;;;;;18.94;44.24;100084.88;5072384;28;20059;-81
2021/12/06 01:44:55;;;;;;;8.77;7.82;;;;;;;18.94;44.32;100084.03;5071737;28;20055;-81
2021/12/06 01:47:32;;;;;;;11.32;8.52;;;;;;;18.94;44.32;100086.72;5071919;28;20056;-81
2021/12/06 01:50:11;;;;;;;8.73;7.93;;;;;;;18.94;44.30;100097.44;5072142;28;20403;-81
2021/12/06 01:52:50;;;;;;;9.27;8.15;;;;;;;18.94;44.30;100089.41;5072188;28;20052;-80
2021/12/06 01:55:27;;;;;;;10.15;8.73;;;;;;;18.93;44.25;100093.09;5071438;28;20044;-81
2021/12/06 01:57:56;;;;;;;8.60;7.60;;;;;;;18.93;44.27;100099.28;5055435;28;20044;-81
2021/12/06 02:00:30;;;;;;;9.07;7.53;;;;;;;18.93;44.30;100098.44;5072122;28;20048;-81
2021/12/06 02:03:05;;;;;;;9.27;8.20;;;;;;;18.93;44.28;100098.44;5071875;28;20049;-81
2021/12/06 02:05:38;;;;;;;8.02;7.20;;;;;;;18.93;44.40;100101.13;5071826;28;20106;-81
2021/12/06 02:08:09;;;;;;;9.45;8.27;;;;;;;18.91;44.32;100095.91;5071754;28;20052;-81
2021/12/06 02:10:39;;;;;;;8.15;7.35;;;;;;;18.92;44.39;100102.97;5071729;28;20063;-81
2021/12/06 02:13:11;;;;;;;10.07;8.10;;;;;;;18.92;44.40;100104.78;5071814;28;20045;-81
2021/12/06 02:15:49;;;;;;;8.18;7.20;;;;;;;18.92;44.38;100110.16;5071421;28;20048;-81
2021/12/06 02:21:19;;;;;;;8.70;7.80;;;;;;;18.89;44.03;100097.91;5071085;28;19920;-81
2021/12/06 02:23:48;;;;;;;9.88;7.47;;;;;;;18.91;44.19;100092.38;5071674;28;20041;-82
2021/12/06 02:26:16;;;;;;;8.52;7.57;;;;;;;18.91;44.16;100085.16;5071367;28;20052;-81
2021/12/06 02:28:44;;;;;;;9.52;8.27;;;;;;;18.90;44.10;100083.47;5071698;28;20056;-81
2021/12/06 02:31:15;;;;;;;8.73;7.65;;;;;;;18.92;44.15;100086.00;5071018;28;20052;-82
2021/12/06 02:33:45;;;;;;;8.45;7.55;;;;;;;18.92;43.98;100081.50;5058107;28;20049;-81
2021/12/06 02:36:13;;;;;;;8.80;8.00;;;;;;;18.92;43.92;100075.28;5051297;28;20053;-81
2021/12/06 02:38:40;;;;;;;8.35;7.55;;;;;;;18.93;43.88;100077.84;5051595;28;20496;-81
2021/12/06 02:41:09;;;;;;;8.73;7.82;;;;;;;18.92;44.07;100067.22;5052861;28;20468;-81
2021/12/06 02:43:37;;;;;;;8.75;7.85;;;;;;;18.92;43.91;100075.28;5051342;28;20052;-81
2021/12/06 02:46:05;;;;;;;10.25;8.48;;;;;;;18.91;44.17;100071.75;5050882;28;20060;-81
2021/12/06 02:48:34;;;;;;;7.72;6.97;;;;;;;18.93;44.09;100085.03;5051374;28;20053;-81
2021/12/06 02:51:04;;;;;;;8.52;7.72;;;;;;;18.93;44.21;100083.19;5050726;28;20049;-81
2021/12/06 02:53:35;;;;;;;9.75;8.27;;;;;;;18.92;44.01;100081.50;5051206;28;20041;-81
2021/12/06 02:56:17;;;;;;;9.25;7.97;;;;;;;18.92;44.19;100075.28;5067396;28;20493;-81
2021/12/06 02:58:56;;;;;;;9.63;7.35;;;;;;;18.92;43.99;100075.28;5050775;28;20048;-80
2021/12/06 03:01:37;;;;;;;8.27;7.53;;;;;;;18.91;44.27;100068.22;5051390;28;20059;-80
2021/12/06 03:04:07;;;;;;;7.45;6.75;;;;;;;18.91;44.00;100070.91;5051700;28;20045;-80
2021/12/06 03:06:35;;;;;;;8.15;7.10;;;;;;;18.91;44.07;100065.56;5053118;28;20049;-80
2021/12/06 03:09:09;;;;;;;8.88;7.80;;;;;;;18.90;44.13;100058.50;5053451;28;20056;-81
2021/12/06 03:11:48;;;;;;;8.00;7.18;;;;;;;18.89;43.83;100065.72;5061871;28;20064;-81
2021/12/06 03:14:20;;;;;;;8.05;7.22;;;;;;;18.89;44.10;100065.72;5056096;28;20040;-82
2021/12/06 03:16:51;;;;;;;8.93;7.35;;;;;;;18.89;43.93;100060.34;5072331;28;20060;-81
2021/12/06 03:19:19;;;;;;;8.07;6.90;;;;;;;18.89;43.94;100063.03;5071744;28;20052;-81
2021/12/06 03:21:47;;;;;;;7.63;6.88;;;;;;;18.89;43.85;100064.88;5071247;28;20392;-82
2021/12/06 03:24:17;;;;;;;7.53;6.70;;;;;;;18.88;43.89;100071.19;5071309;28;20063;-82
2021/12/06 03:26:46;;;;;;;8.07;6.25;;;;;;;18.88;44.02;100081.94;5071191;28;20056;-82
2021/12/06 03:29:14;;;;;;;7.80;6.57;;;;;;;18.89;43.90;100086.31;5072293;28;20048;-81
2021/12/06 03:31:41;;;;;;;7.93;6.32;;;;;;;18.89;44.02;100092.53;5055042;28;20052;-81
2021/12/06 03:34:10;;;;;;;8.15;6.65;;;;;;;18.87;43.92;100089.13;5065766;28;20060;-81
2021/12/06 03:36:39;;;;;;;7.20;6.50;;;;;;;18.88;43.99;100089.97;5054298;28;20048;-80
2021/12/06 03:39:14;;;;;;;7.07;6.38;;;;;;;18.87;43.98;100088.28;5071360;28;20052;-80
2021/12/06 03:41:42;;;;;;;7.43;6.72;;;;;;;18.87;44.22;100088.28;5074097;28;20388;-80
2021/12/06 03:44:10;;;;;;;6.82;6.13;;;;;;;18.86;44.10;100089.28;5074073;28;20049;-80
2021/12/06 03:46:40;;;;;;;6.80;5.90;;;;;;;18.85;43.88;100099.19;5073862;28;20052;-80
2021/12/06 03:49:14;;;;;;;6.93;6.22;;;;;;;18.85;44.14;100106.38;5074214;28;20127;-80
2021/12/06 03:51:44;;;;;;;6.95;6.15;;;;;;;18.85;44.08;100111.75;5073870;28;20075;-80
2021/12/06 03:54:16;;;;;;;6.93;6.20;;;;;;;18.84;44.01;100115.41;5073780;28;20051;-80
2021/12/06 03:56:45;;;;;;;7.78;6.50;;;;;;;18.84;43.98;100118.06;5074063;28;20055;-80
2021/12/06 03:59:12;;;;;;;6.72;6.03;;;;;;;18.83;43.99;100130.66;5074460;28;20057;-80
2021/12/06 04:01:40;;;;;;;6.95;6.20;;;;;;;18.82;43.99;100131.66;5075395;28;20049;-80
2021/12/06 04:04:10;;;;;;;7.15;6.07;;;;;;;18.83;43.91;100129.81;5057307;28;20041;-81
2021/12/06 04:06:39;;;;;;;6.25;5.65;;;;;;;18.83;44.11;100129.81;5073921;28;20052;-82
2021/12/06 04:09:08;;;;;;;5.95;5.35;;;;;;;18.82;44.05;100141.53;5075643;28;20071;-82
2021/12/06 04:11:36;;;;;;;7.00;5.82;;;;;;;18.81;44.01;100138.00;5057703;28;20045;-81
2021/12/06 04:14:06;;;;;;;6.55;5.55;;;;;;;18.81;44.01;100147.91;5073492;28;20056;-81
2021/12/06 04:16:36;;;;;;;6.22;5.47;;;;;;;18.80;43.99;100155.09;5073747;28;20044;-81
2021/12/06 04:19:06;;;;;;;6.80;5.85;;;;;;;18.81;43.88;100164.81;5056762;28;20049;-81
2021/12/06 04:21:36;;;;;;;5.75;5.18;;;;;;;18.81;43.78;100162.13;5073859;28;20056;-81
2021/12/06 04:24:05;;;;;;;5.82;5.13;;;;;;;18.80;43.83;100159.59;5073488;28;20044;-81
2021/12/06 04:26:33;;;;;;;6.38;5.38;;;;;;;18.79;43.98;100158.75;5073678;28;20055;-81
2021/12/06 04:29:02;;;;;;;6.53;5.68;;;;;;;18.78;43.91;100154.38;5074733;28;20040;-81
2021/12/06 04:31:41;;;;;;;7.43;5.93;;;;;;;18.78;44.07;100159.75;5073748;28;20052;-80
2021/12/06 04:34:10;;;;;;;6.38;5.47;;;;;;;18.77;43.96;100153.53;5070905;28;20047;-80
2021/12/06 04:36:42;;;;;;;5.43;4.93;;;;;;;18.78;43.90;100159.75;5069392;28;20051;-80
2021/12/06 04:39:13;;;;;;;5.28;4.78;;;;;;;18.76;43.84;100154.53;5074418;28;20380;-80
2021/12/06 04:41:41;;;;;;;6.05;4.90;;;;;;;18.76;43.89;100154.53;5056404;28;20052;-81
2021/12/06 04:44:10;;;;;;;5.70;4.93;;;;;;;18.76;43.92;100167.09;5072770;28;20062;-81
2021/12/06 04:46:38;;;;;;;5.53;4.70;;;;;;;18.76;43.73;100162.56;5074882;28;20379;-81
2021/12/06 04:49:06;;;;;;;5.93;5.03;;;;;;;18.76;43.55;100178.66;5072854;28;20048;-81
2021/12/06 04:51:37;;;;;;;5.88;5.10;;;;;;;18.77;43.59;100176.81;5074366;28;20048;-81
2021/12/06 04:54:06;;;;;;;6.05;4.80;;;;;;;18.77;43.43;100175.00;5073288;28;20053;-82
2021/12/06 04:56:41;;;;;;;6.75;5.35;;;;;;;18.76;43.52;100173.31;5072805;28;20484;-81
2021/12/06 04:59:15;;;;;;;6.93;5.70;;;;;;;18.77;43.59;100177.66;5072700;28;20483;-81
2021/12/06 05:01:47;;;;;;;6.15;5.03;;;;;;;18.77;43.53;100193.75;5073099;28;20059;-81
2021/12/06 05:04:24;;;;;;;7.05;5.63;;;;;;;18.78;43.58;100206.16;5074340;28;20043;-80
2021/12/06 05:07:01;;;;;;;6.82;5.47;;;;;;;18.78;43.57;100200.81;5074235;28;20049;-80
2021/12/06 05:09:37;;;;;;;5.90;4.93;;;;;;;18.78;43.64;100213.38;5072787;28;20044;-81
2021/12/06 05:12:08;;;;;;;6.32;5.53;;;;;;;18.78;43.53;100219.56;5057131;28;20051;-81
2021/12/06 05:14:36;;;;;;;5.90;4.97;;;;;;;18.77;43.46;100222.41;5072532;28;20045;-81
2021/12/06 05:17:04;;;;;;;8.27;5.40;;;;;;;18.77;43.61;100215.22;5072343;28;20056;-81
2021/12/06 05:19:32;;;;;;;5.75;4.93;;;;;;;18.78;43.44;100224.94;5073853;28;20051;-81
2021/12/06 05:22:06;;;;;;;5.63;4.90;;;;;;;18.77;43.42;100228.63;5072883;28;20048;-80
2021/12/06 05:24:34;;;;;;;5.90;5.30;;;;;;;18.77;43.28;100233.97;5072346;28;20040;-81
2021/12/06 05:27:04;;;;;;;6.13;5.35;;;;;;;18.78;43.33;100234.81;5072395;28;20514;-81
2021/12/06 05:29:34;;;;;;;6.70;5.45;;;;;;;18.76;43.52;100234.97;5056061;28;20479;-81
2021/12/06 05:32:04;;;;;;;5.80;5.20;;;;;;;18.76;43.54;100243.03;5073809;28;20045;-80
2021/12/06 05:34:38;;;;;;;5.85;4.95;;;;;;;18.76;43.49;100245.72;5072009;28;20360;-79
2021/12/06 05:37:09;;;;;;;5.63;4.78;;;;;;;18.76;43.46;100250.22;5070278;28;20507;-80
2021/12/06 05:39:38;;;;;;;5.97;5.03;;;;;;;18.75;43.48;100246.66;5074016;28;20052;-80
2021/12/06 05:42:10;;;;;;;6.30;4.82;;;;;;;18.74;43.66;100258.41;5073319;28;20051;-81
2021/12/06 05:44:38;;;;;;;5.68;5.07;;;;;;;18.74;43.33;100261.06;5074055;28;20044;-81
2021/12/06 05:47:06;;;;;;;5.70;5.13;;;;;;;18.74;43.64;100257.56;5073670;28;20040;-81
2021/12/06 05:49:34;;;;;;;6.15;5.30;;;;;;;18.73;43.52;100254.03;5072059;28;20408;-81
2021/12/06 05:52:02;;;;;;;6.35;5.38;;;;;;;18.73;43.61;100263.91;5055919;28;20052;-80
2021/12/06 05:54:30;;;;;;;5.50;5.00;;;;;;;18.73;43.87;100261.22;5072876;28;20037;-81
2021/12/06 05:56:58;;;;;;;5.70;5.07;;;;;;;18.71;43.64;100265.88;5073392;28;20052;-80
2021/12/06 05:59:26;;;;;;;5.50;5.00;;;;;;;18.71;43.61;100268.56;5073106;28;20048;-80
2021/12/06 06:01:54;;;;;;;8.35;5.15;;;;;;;18.70;43.86;100273.06;5073605;28;20091;-80
2021/12/06 06:04:23;;;;;;;6.90;5.35;;;;;;;18.69;43.68;100271.34;5073343;28;20071;-80
2021/12/06 06:06:50;;;;;;;5.82;5.15;;;;;;;18.69;43.87;100282.06;5071737;28;20048;-81
2021/12/06 06:09:18;;;;;;;5.10;4.60;;;;;;;18.69;43.66;100289.28;5073406;28;20049;-81
2021/12/06 06:11:46;;;;;;;6.13;5.53;;;;;;;18.67;43.80;100292.09;5073064;28;20115;-80
2021/12/06 06:14:15;;;;;;;5.60;4.82;;;;;;;18.67;43.85;100293.91;5072741;28;20044;-79
2021/12/06 06:16:47;;;;;;;5.47;4.55;;;;;;;18.67;43.79;100294.75;5073305;28;20048;-82
2021/12/06 06:19:18;;;;;;;5.72;4.38;;;;;;;18.66;43.56;100295.75;5071669;28;20052;-81
2021/12/06 06:21:46;;;;;;;5.43;4.90;;;;;;;18.66;43.79;100295.75;5073031;28;20044;-80
2021/12/06 06:24:14;;;;;;;6.65;5.47;;;;;;;18.65;43.93;100299.44;5071147;28;20131;-80
2021/12/06 06:26:41;;;;;;;7.80;4.88;;;;;;;18.67;43.77;100304.66;5073036;28;20055;-81
2021/12/06 06:29:11;;;;;;;5.78;5.00;;;;;;;18.65;43.82;100304.78;5072253;28;20051;-80
2021/12/06 06:31:39;;;;;;;5.80;4.95;;;;;;;18.64;43.80;100319.19;5072624;28;20049;-81
2021/12/06 06:34:08;;;;;;;6.15;4.88;;;;;;;18.63;43.62;100306.75;5072770;28;20044;-80
2021/12/06 06:36:36;;;;;;;7.20;5.43;;;;;;;18.62;43.94;100314.94;5070077;28;20399;-80
2021/12/06 06:39:06;;;;;;;7.60;5.20;;;;;;;18.62;43.83;100317.63;5055383;28;20055;-81
2021/12/06 06:41:35;;;;;;;6.95;4.68;;;;;;;18.60;43.63;100323.16;5053049;28;20041;-82
2021/12/06 06:44:03;;;;;;;6.35;5.05;;;;;;;18.60;43.81;100320.47;5051313;28;20053;-82
2021/12/06 06:46:32;;;;;;;6.78;4.65;;;;;;;18.59;43.97;100324.09;5052968;28;20404;-82
2021/12/06 06:48:59;;;;;;;7.47;5.10;;;;;;;18.59;44.95;100325.94;5052920;28;20049;-82
2021/12/06 06:51:28;;;;;;;7.05;4.53;;;;;;;18.58;44.85;100325.09;5053000;28;20396;-81
2021/12/06 06:53:56;;;;;;;15.75;5.03;;;;;;;18.58;44.52;100337.66;5052807;28;20048;-80
2021/12/06 06:56:24;;;;;;;11.48;5.45;;;;;;;18.57;44.62;100344.00;5052581;28;20496;-81
2021/12/06 06:58:52;;;;;;;7.55;5.03;;;;;;;18.56;44.41;100343.16;5052687;28;20049;-81
2021/12/06 07:01:20;;;;;;;5.53;5.00;;;;;;;18.56;44.47;100353.06;5052677;28;20060;-80
2021/12/06 07:03:53;;;;;;;7.38;4.90;;;;;;;18.54;44.47;100339.78;5052429;28;20408;-81
2021/12/06 07:06:22;;;;;;;10.02;4.65;;;;;;;18.55;44.64;100346.81;5054522;28;20392;-81
2021/12/06 07:08:51;;;;;;;5.72;4.45;;;;;;;18.54;44.41;100345.97;5056211;28;20041;-83
2021/12/06 07:11:26;;;;;;;5.25;4.43;;;;;;;18.54;44.66;100351.34;5055010;28;20405;-84
2021/12/06 07:13:55;;;;;;;5.65;4.72;;;;;;;18.56;44.69;100347.69;5056188;28;20044;-83
2021/12/06 07:16:24;;;;;;;6.00;5.10;;;;;;;18.54;44.49;100347.81;5056110;28;20052;-86
2021/12/06 07:18:52;;;;;;;7.38;4.75;;;;;;;18.56;44.43;100351.22;5056126;28;20072;-82
2021/12/06 07:21:20;;;;;;;9.38;5.47;;;;;;;18.56;44.35;100353.06;5055976;28;20060;-82
2021/12/06 07:23:48;;;;;;;10.90;5.32;;;;;;;18.55;44.26;100357.53;5056357;28;20045;-82
2021/12/06 07:26:18;;;;;;;9.02;4.90;;;;;;;18.54;44.26;100356.69;5056172;28;20045;-81
2021/12/06 07:28:48;;;;;;;8.15;4.90;;;;;;;18.55;44.03;100376.31;5054568;28;20055;-83
2021/12/06 07:31:15;;;;;;;7.53;5.43;;;;;;;18.56;44.10;100369.13;5056080;28;20074;-83
2021/12/06 07:33:46;;;;;;;9.02;5.22;;;;;;;18.57;44.07;100381.56;5056150;28;20056;-81
2021/12/06 07:36:19;;;;;;;7.38;5.72;;;;;;;18.55;44.24;100378.97;5056489;28;20468;-82
2021/12/06 07:38:47;;;;;;;10.13;5.32;;;;;;;18.54;44.22;100388.03;5062533;28;20044;-81
2021/12/06 07:41:17;;;;;;;9.25;5.10;;;;;;;18.53;44.16;100389.00;5055360;28;20049;-81
2021/12/06 07:43:45;;;;;;;7.32;5.07;;;;;;;18.52;44.21;100390.84;5073867;28;20049;-81
2021/12/06 07:46:15;;;;;;;7.38;4.88;;;;;;;18.53;43.98;100391.69;5075694;28;20510;-81
2021/12/06 07:48:43;;;;;;;8.80;4.75;;;;;;;18.53;44.06;100394.38;5075462;28;20049;-82
2021/12/06 07:51:10;;;;;;;8.90;5.20;;;;;;;18.53;43.87;100397.06;5074384;28;20403;-82
2021/12/06 07:53:39;;;;;;;8.85;5.15;;;;;;;18.54;43.65;100412.16;5075439;28;20491;-82
2021/12/06 07:56:07;;;;;;;9.45;5.45;;;;;;;18.54;43.95;100417.50;5075527;28;20052;-82
2021/12/06 07:58:35;;;;;;;7.85;5.47;;;;;;;18.52;43.83;100414.97;5075470;28;20052;-82
2021/12/06 08:01:03;;;;;;;8.98;5.07;;;;;;;18.53;43.77;100423.84;5075112;28;20407;-81
2021/12/06 08:03:31;;;;;;;6.28;5.03;;;;;;;18.53;43.75;100421.19;5075800;28;20540;-82
2021/12/06 08:05:59;;;;;;;8.55;5.25;;;;;;;18.53;43.75;100426.53;5075173;28;20051;-82
2021/12/06 08:08:30;;;;;;;7.20;5.25;;;;;;;18.52;43.46;100420.34;5075185;28;20399;-81
2021/12/06 08:11:09;;;;;;;8.52;4.95;;;;;;;18.52;43.71;100422.19;5075389;28;20372;-82
2021/12/06 08:13:39;;;;;;;8.00;4.95;;;;;;;18.51;43.85;100417.78;5073731;28;20057;-82
2021/12/06 08:16:10;;;;;;;8.02;5.35;;;;;;;18.50;43.64;100419.59;5074822;28;20377;-82
2021/12/06 08:18:38;;;;;;;7.53;4.97;;;;;;;18.51;43.57;100415.09;5072721;28;20044;-82
2021/12/06 08:21:07;;;;;;;5.80;5.03;;;;;;;18.51;43.50;100424.00;5075254;28;20044;-82
2021/12/06 08:23:38;;;;;;;9.82;5.72;;;;;;;18.52;43.52;100427.53;5073904;28;20483;-82
2021/12/06 08:26:08;;;;;;;9.80;5.45;;;;;;;18.52;43.49;100430.22;5074494;28;20041;-82
2021/12/06 08:28:36;;;;;;;7.80;5.00;;;;;;;18.52;43.53;100430.22;5073193;28;20059;-82
2021/12/06 08:31:05;;;;;;;8.35;5.18;;;;;;;18.51;43.25;100426.69;5074429;28;20041;-82
2021/12/06 08:33:34;;;;;;;8.02;5.60;;;;;;;18.52;43.40;100439.09;5072591;28;20064;-82
2021/12/06 08:36:05;;;;;;;7.45;5.40;;;;;;;18.52;43.38;100436.41;5074719;28;20404;-82
2021/12/06 08:38:34;;;;;;;7.68;5.50;;;;;;;18.52;43.38;100438.25;5072050;28;20041;-82
2021/12/06 08:41:06;;;;;;;6.57;4.38;;;;;;;18.51;43.18;100436.53;5070768;28;20055;-82
2021/12/06 08:43:34;;;;;;;5.93;5.03;;;;;;;18.52;43.32;100443.63;5072920;28;20495;-81
2021/12/06 08:46:05;;;;;;;6.95;4.80;;;;;;;18.51;43.42;100447.25;5074543;28;20036;-82
2021/12/06 08:48:35;;;;;;;6.47;5.43;;;;;;;18.51;43.15;100455.31;5074441;28;20384;-82
2021/12/06 08:51:19;;;;;;;6.05;5.45;;;;;;;18.50;43.28;100467.84;5074420;28;20060;-82
2021/12/06 08:53:49;;;;;;;7.60;5.97;;;;;;;18.51;43.23;100463.34;5074332;28;20044;-76
2021/12/06 08:56:17;;;;;;;5.97;5.03;;;;;;;18.50;42.91;100467.00;5073586;28;20041;-75
2021/12/06 08:58:45;;;;;;;7.47;4.72;;;;;;;18.50;43.33;100477.75;5074137;28;20045;-76
2021/12/06 09:01:13;;;;;;;6.50;5.50;;;;;;;18.50;43.29;100485.78;5072033;28;20048;-76
2021/12/06 09:04:02;;;;;;;6.13;4.72;;;;;;;18.50;43.15;100493.81;5073613;28;20052;-76
2021/12/06 09:06:30;;;;;;;8.63;5.28;;;;;;;18.51;43.53;100490.16;5074049;28;20048;-76
2021/12/06 09:08:57;;;;;;;5.85;5.28;;;;;;;18.52;43.46;100499.91;5088143;28;20085;-76
2021/12/06 09:11:25;;;;;;;6.72;5.18;;;;;;;18.53;43.47;100509.66;5072372;28;20040;-78
2021/12/06 09:13:52;;;;;;;9.68;5.13;;;;;;;18.52;43.53;100518.69;5073930;28;20052;-77
2021/12/06 09:16:20;;;;;;;8.48;4.88;;;;;;;18.51;43.62;100514.28;5073394;28;20044;-76
2021/12/06 09:18:48;;;;;;;8.40;5.28;;;;;;;18.51;43.55;100527.69;5073314;28;20051;-77
2021/12/06 09:21:21;;;;;;;8.65;5.43;;;;;;;18.51;43.41;100533.91;5073502;28;20412;-77
2021/12/06 09:23:52;;;;;;;8.82;4.80;;;;;;;18.50;43.61;100529.50;5072180;28;20048;-77
2021/12/06 09:26:20;;;;;;;7.13;5.57;;;;;;;18.50;44.12;100529.50;5071855;28;20052;-77
2021/12/06 09:28:47;;;;;;;10.73;6.15;;;;;;;18.48;44.31;100533.31;5073165;28;20041;-77
2021/12/06 09:31:16;;;;;;;7.75;6.20;;;;;;;18.46;44.21;100538.81;5073574;28;20040;-76
2021/12/06 09:33:44;;;;;;;8.52;6.55;;;;;;;18.45;44.12;100531.75;5073126;28;20502;-77
2021/12/06 09:36:13;;;;;;;8.30;6.47;;;;;;;18.43;43.99;100533.72;5073255;28;20051;-77
2021/12/06 09:38:44;;;;;;;9.00;7.38;;;;;;;18.41;43.65;100530.31;5073264;28;20385;-76
2021/12/06 09:41:20;;;;;;;8.75;6.65;;;;;;;18.42;42.81;100536.53;5072365;28;20063;-76
2021/12/06 09:43:48;;;;;;;10.23;6.47;;;;;;;18.43;43.13;100536.41;5072638;28;20048;-75
2021/12/06 09:46:18;;;;;;;7.47;6.30;;;;;;;18.42;42.92;100534.69;5073362;28;20045;-75
2021/12/06 09:48:47;;;;;;;7.90;6.53;;;;;;;18.43;42.81;100525.69;5073131;28;20040;-76
2021/12/06 09:51:25;;;;;;;8.65;5.63;;;;;;;18.44;43.02;100531.91;5071754;28;20051;-76
2021/12/06 09:53:56;;;;;;;7.40;5.72;;;;;;;18.44;42.92;100534.56;5073453;28;20055;-75
2021/12/06 09:56:29;;;;;;;7.47;5.68;;;;;;;18.43;42.72;100536.41;5072581;28;20041;-76
2021/12/06 09:58:59;;;;;;;6.38;5.30;;;;;;;18.44;42.91;100543.47;5071050;28;20411;-76
2021/12/06 10:01:35;;;;;;;6.13;5.47;;;;;;;18.44;42.98;100542.63;5072575;28;20052;-76
2021/12/06 10:04:07;;;;;;;6.22;5.18;;;;;;;18.44;42.98;100545.31;5072980;28;20049;-76
2021/12/06 10:06:35;;;;;;;6.40;5.07;;;;;;;18.43;43.13;100540.91;5071494;28;20051;-76
2021/12/06 10:09:06;;;;;;;8.85;5.63;;;;;;;18.43;43.11;100539.09;5072758;28;20045;-76
2021/12/06 10:11:34;;;;;;;6.18;5.05;;;;;;;18.43;42.96;100536.41;5072992;28;20041;-76
2021/12/06 10:14:02;;;;;;;6.35;4.75;;;;;;;18.45;42.98;100538.94;5072501;28;20399;-76
2021/12/06 10:16:31;;;;;;;6.18;4.60;;;;;;;18.44;42.97;100522.03;5071299;28;20492;-76
2021/12/06 10:18:59;;;;;;;5.47;4.78;;;;;;;18.44;43.08;100530.06;5072936;28;20052;-76
2021/12/06 10:21:27;;;;;;;5.45;4.95;;;;;;;18.44;43.02;100519.34;5071540;28;20049;-77
2021/12/06 10:23:56;;;;;;;8.88;4.53;;;;;;;18.45;43.29;100528.22;5071156;28;20045;-76
2021/12/06 10:26:27;;;;;;;5.45;4.95;;;;;;;18.44;43.12;100527.38;5070114;28;20049;-76
2021/12/06 10:29:01;;;;;;;5.53;4.32;;;;;;;18.44;42.97;100530.06;5071612;28;20399;-76
2021/12/06 10:31:32;;;;;;;6.00;4.85;;;;;;;18.44;43.06;100515.81;5072570;28;20408;-76
2021/12/06 10:33:59;;;;;;;5.90;4.57;;;;;;;18.44;43.13;100527.38;5072540;28;20406;-76
2021/12/06 10:36:27;;;;;;;6.10;5.03;;;;;;;18.44;43.18;100531.91;5072681;28;20052;-76
2021/12/06 10:39:02;;;;;;;5.63;5.00;;;;;;;18.44;43.12;100527.38;5072229;28;20483;-76
2021/12/06 10:41:31;;;;;;;6.05;5.15;;;;;;;18.45;43.16;100529.06;5071847;28;20048;-76
2021/12/06 10:44:09;;;;;;;6.28;4.53;;;;;;;18.45;43.16;100526.38;5075153;28;20523;-76
2021/12/06 10:47:12;;;;;;;5.63;4.82;;;;;;;18.46;42.99;100521.88;5076274;28;20040;-76
2021/12/06 10:49:47;;;;;;;6.88;4.63;;;;;;;18.48;43.05;100525.28;5075114;28;20048;-76
2021/12/06 10:52:28;;;;;;;6.55;5.03;;;;;;;18.49;42.95;100522.47;5076682;28;20052;-76
2021/12/06 10:54:55;;;;;;;5.85;5.10;;;;;;;18.48;43.04;100515.41;5075943;28;20049;-76
2021/12/06 10:57:54;;;;;;;5.78;4.43;;;;;;;18.49;43.09;100524.28;5076064;28;20052;-76
2021/12/06 11:00:45;;;;;;;6.10;5.00;;;;;;;18.48;42.97;100511.88;5075922;28;20048;-75
2021/12/06 11:03:21;;;;;;;6.95;5.68;;;;;;;18.48;43.21;100519.94;5076106;28;20048;-76
2021/12/06 11:05:51;;;;;;;8.48;5.13;;;;;;;18.47;43.01;100515.53;5074703;28;20048;-76
2021/12/06 11:08:19;;;;;;;5.90;5.10;;;;;;;18.46;43.14;100514.69;5075849;28;20068;-76
2021/12/06 11:10:50;;;;;;;5.65;5.15;;;;;;;18.46;43.17;100520.03;5073065;28;20407;-76
2021/12/06 11:13:22;;;;;;;5.70;5.10;;;;;;;18.45;43.17;100517.50;5054104;28;20052;-76
2021/12/06 11:16:17;;;;;;;5.53;4.87;;;;;;;18.45;43.12;100509.47;5055839;28;20057;-77
2021/12/06 11:18:54;;;;;;;7.20;5.40;;;;;;;18.45;43.44;100517.50;5053180;28;20083;-76
2021/12/06 11:21:38;;;;;;;6.88;4.97;;;;;;;18.43;44.10;100509.59;5055656;28;20055;-76
2021/12/06 11:24:11;;;;;;;8.30;5.22;;;;;;;18.43;44.43;100516.78;5053784;28;20057;-76
2021/12/06 11:26:48;;;;;;;5.82;5.15;;;;;;;18.42;44.03;100513.25;5055836;28;20060;-77
2021/12/06 11:29:32;;;;;;;7.30;5.07;;;;;;;18.42;43.71;100523.97;5055416;28;20049;-76
2021/12/06 11:32:09;;;;;;;6.75;5.15;;;;;;;18.43;43.76;100514.97;5054475;28;20056;-76
2021/12/06 11:34:38;;;;;;;5.97;5.20;;;;;;;18.43;43.63;100517.66;5055422;28;20503;-76
2021/12/06 11:37:16;;;;;;;7.00;5.20;;;;;;;18.44;43.61;100515.81;5055589;28;20488;-76
2021/12/06 11:39:48;;;;;;;5.53;4.53;;;;;;;18.44;43.70;100522.03;5055589;28;20048;-76
2021/12/06 11:42:16;;;;;;;6.55;5.20;;;;;;;18.45;43.53;100512.16;5069687;28;20048;-77
2021/12/06 11:44:46;;;;;;;6.10;5.47;;;;;;;18.44;43.50;100513.13;5073728;28;20114;-76
2021/12/06 11:47:17;;;;;;;6.60;5.32;;;;;;;18.44;43.54;100511.31;5074986;28;20514;-76
2021/12/06 11:49:52;;;;;;;5.65;4.90;;;;;;;18.45;43.44;100513.00;5073975;28;20052;-76
2021/12/06 11:52:24;;;;;;;6.90;5.50;;;;;;;18.45;43.29;100506.78;5073849;28;20056;-76
2021/12/06 11:54:58;;;;;;;7.05;5.75;;;;;;;18.44;43.32;100511.31;5073490;28;20064;-76